createdAt,value
2024-03-31T00:04:24.612Z,9.91
2024-03-31T00:14:24.838Z,9.95
2024-03-31T00:24:24.599Z,9.84
2024-03-31T00:34:24.607Z,9.96
2024-03-31T00:44:24.672Z,9.85
2024-03-31T00:54:24.555Z,9.79
2024-03-31T01:04:24.671Z,9.96
2024-03-31T01:14:24.717Z,10.28
2024-03-31T01:24:24.639Z,10.32
2024-03-31T01:34:24.581Z,10.44
2024-03-31T01:44:24.507Z,10.33
2024-03-31T01:54:24.582Z,10.26
2024-03-31T02:04:24.621Z,10.28
2024-03-31T02:14:24.524Z,10.35
2024-03-31T02:24:24.666Z,10.32
2024-03-31T02:34:24.599Z,10.1
2024-03-31T02:44:24.645Z,9.94
2024-03-31T02:54:24.558Z,9.62
2024-03-31T03:04:24.580Z,9.43
2024-03-31T03:14:24.553Z,9.21
2024-03-31T03:24:24.533Z,9.21
2024-03-31T03:34:24.629Z,9.13
2024-03-31T03:44:24.487Z,8.96
2024-03-31T03:54:24.614Z,8.85
2024-03-31T04:04:24.557Z,8.76
2024-03-31T04:14:24.529Z,8.73
2024-03-31T04:24:24.514Z,8.84
2024-03-31T04:34:24.528Z,8.79
2024-03-31T04:44:24.575Z,8.6
2024-03-31T04:54:24.377Z,8.53
2024-03-31T05:04:24.499Z,8.5
2024-03-31T05:14:24.371Z,8.75
2024-03-31T05:24:24.468Z,9.39
2024-03-31T05:34:24.350Z,10.27
2024-03-31T05:44:24.459Z,10.74
2024-03-31T05:54:24.502Z,10.7
2024-03-31T06:04:24.448Z,10.64
2024-03-31T06:14:24.327Z,10.83
2024-03-31T06:24:24.733Z,11.03
2024-03-31T06:34:24.494Z,11.18
2024-03-31T06:44:24.352Z,11.25
2024-03-31T06:54:24.317Z,11.36
2024-03-31T07:04:24.434Z,11.69
2024-03-31T07:14:24.309Z,12.05
2024-03-31T07:24:24.295Z,12.74
2024-03-31T07:34:24.395Z,13.33
2024-03-31T07:44:24.483Z,14.09
2024-03-31T07:54:24.337Z,14.44
2024-03-31T08:04:24.286Z,14.7
2024-03-31T08:14:24.244Z,15.34
2024-03-31T08:24:24.387Z,16.38
2024-03-31T08:34:24.403Z,16.5
2024-03-31T08:44:24.341Z,16.63
2024-03-31T08:54:24.351Z,16.94
2024-03-31T09:04:24.395Z,17.09
2024-03-31T09:14:24.327Z,16.74
2024-03-31T09:24:24.321Z,17.31
2024-03-31T09:34:24.328Z,17.93
2024-03-31T09:44:24.291Z,17.53
2024-03-31T09:54:24.355Z,16.63
2024-03-31T10:04:24.294Z,15.56
2024-03-31T10:14:24.356Z,15.8
2024-03-31T10:24:24.126Z,15.81
2024-03-31T10:34:24.132Z,15.4
2024-03-31T10:44:24.121Z,14.95
2024-03-31T10:54:24.085Z,14.51
2024-03-31T11:04:24.098Z,14.36
2024-03-31T11:14:24.104Z,14.09
2024-03-31T11:24:24.199Z,13.88
2024-03-31T11:34:24.093Z,13.79
2024-03-31T11:44:24.070Z,14.03
2024-03-31T11:54:24.075Z,14.07
2024-03-31T12:04:24.176Z,14.47
2024-03-31T12:14:24.049Z,15.15
2024-03-31T12:24:24.274Z,16.29
2024-03-31T12:34:24.176Z,16.8
2024-03-31T12:44:24.314Z,16.4
2024-03-31T12:54:24.255Z,16.46
2024-03-31T13:04:24.017Z,16
2024-03-31T13:14:24.030Z,15.66
2024-03-31T13:24:25.591Z,15.23
2024-03-31T13:34:23.958Z,15.02
2024-03-31T13:44:24.003Z,14.6
2024-03-31T13:54:23.970Z,13.7
2024-03-31T14:04:24.090Z,13.05
2024-03-31T14:14:24.207Z,12.88
2024-03-31T14:24:23.959Z,12.36
2024-03-31T14:44:24.016Z,12.41
2024-03-31T14:54:23.920Z,12.46
2024-03-31T15:04:24.055Z,12.48
2024-03-31T15:14:24.142Z,12.51
2024-03-31T15:24:24.148Z,12.14
2024-03-31T15:34:24.044Z,11.92
2024-03-31T15:44:23.893Z,11.78
2024-03-31T15:54:24.468Z,11.7
2024-03-31T16:04:24.167Z,11.67
2024-03-31T16:14:23.891Z,11.45
2024-03-31T16:24:23.885Z,11.15
2024-03-31T16:34:23.908Z,10.87
2024-03-31T16:44:24.100Z,10.62
2024-03-31T16:54:23.923Z,10.39
2024-03-31T17:04:23.844Z,10.16
2024-03-31T17:14:24.057Z,9.99
2024-03-31T17:24:23.971Z,9.91
2024-03-31T17:34:24.085Z,9.8
2024-03-31T17:44:23.921Z,9.7
2024-03-31T17:54:24.005Z,9.71
2024-03-31T18:04:23.969Z,9.6
2024-03-31T18:14:23.810Z,9.55
2024-03-31T18:24:23.829Z,9.61
2024-03-31T18:34:24.034Z,9.49
2024-03-31T18:44:23.985Z,9.51
2024-03-31T18:54:23.911Z,9.55
2024-03-31T19:04:24.020Z,9.56
2024-03-31T19:14:23.972Z,9.54
2024-03-31T19:24:25.898Z,9.69
2024-03-31T19:34:23.904Z,9.85
2024-03-31T19:44:24.044Z,9.85
2024-03-31T19:54:23.968Z,9.69
2024-03-31T20:04:23.999Z,9.6
2024-03-31T20:14:23.908Z,9.59
2024-03-31T20:24:24.004Z,9.62
2024-03-31T20:34:23.944Z,9.52
2024-03-31T20:44:23.929Z,9.36
2024-03-31T20:54:23.859Z,9.13
2024-03-31T21:04:23.902Z,9.01
2024-03-31T21:14:23.909Z,8.98
2024-03-31T21:24:23.971Z,9.05
2024-03-31T21:34:23.871Z,8.94
2024-03-31T21:44:23.817Z,8.72
2024-03-31T21:54:23.919Z,8.73
2024-03-31T22:04:23.850Z,8.65
2024-03-31T22:14:23.893Z,8.71
2024-03-31T22:24:23.850Z,8.7
2024-03-31T22:34:23.853Z,8.82
2024-03-31T22:44:23.880Z,8.95
2024-03-31T22:54:23.906Z,9.07
2024-03-31T23:04:23.914Z,9.31
2024-03-31T23:14:23.806Z,9.19
2024-03-31T23:24:23.809Z,9.01
2024-03-31T23:34:23.811Z,8.76
2024-03-31T23:44:23.805Z,8.69
2024-03-31T23:54:23.818Z,8.67
